Time;durP1;ratioP1;P1;durP2;ratioP2;P2;SDS_P1;SDS_P2;PMS_P1;PMS_P2;Temp;Humidity;BMP_temperature;BMP_pressure;BME280_temperature;BME280_humidity;BME280_pressure;Samples;Min_cycle;Max_cycle;Signal;HPM_P1;HPM_P2
2021/08/22 00:01:11;;;;;;;3.33;2.42;;;;;;;;;;2615625;54;20123;-69
2021/08/22 00:03:37;;;;;;;4.28;2.58;;;;;;;;;;2615552;54;20087;-69
2021/08/22 00:06:02;;;;;;;3.17;2.10;;;;;;;;;;2615797;54;20026;-70
2021/08/22 00:08:28;;;;;;;4.65;2.83;;;;;;;;;;2615847;47;20034;-70
2021/08/22 00:10:53;;;;;;;9.15;2.72;;;;;;;;;;2615879;54;20516;-70
2021/08/22 00:13:19;;;;;;;2.60;2.03;;;;;;;;;;2615209;47;20038;-69
2021/08/22 00:15:46;;;;;;;2.88;1.88;;;;;;;;;;2615745;54;20019;-69
2021/08/22 00:18:12;;;;;;;2.97;2.15;;;;;;;;;;2615479;54;20025;-69
2021/08/22 00:20:37;;;;;;;8.45;1.98;;;;;;;;;;2615835;54;20082;-69
2021/08/22 00:23:03;;;;;;;2.55;1.98;;;;;;;;;;2615140;39;20464;-69
2021/08/22 00:25:29;;;;;;;3.05;2.33;;;;;;;;;;2615892;54;20037;-69
2021/08/22 00:27:54;;;;;;;2.85;1.80;;;;;;;;;;2615718;54;20034;-70
2021/08/22 00:30:19;;;;;;;2.97;2.17;;;;;;;;;;2615521;54;20623;-70
2021/08/22 00:32:45;;;;;;;2.45;1.60;;;;;;;;;;2615754;54;20023;-69
2021/08/22 00:35:10;;;;;;;2.92;1.98;;;;;;;;;;2615820;39;20330;-70
2021/08/22 00:37:36;;;;;;;2.75;1.90;;;;;;;;;;2615974;39;20460;-69
2021/08/22 00:40:02;;;;;;;7.82;2.28;;;;;;;;;;2615348;54;20027;-69
2021/08/22 00:42:32;;;;;;;3.65;2.40;;;;;;;;;;2615820;54;20018;-70
2021/08/22 00:44:58;;;;;;;2.30;1.63;;;;;;;;;;2615622;54;20097;-69
2021/08/22 00:47:25;;;;;;;7.53;2.53;;;;;;;;;;2614628;54;20294;-69
2021/08/22 00:49:51;;;;;;;4.97;2.90;;;;;;;;;;2615643;54;20134;-70
2021/08/22 00:52:16;;;;;;;2.72;2.17;;;;;;;;;;2614406;54;20022;-69
2021/08/22 00:54:42;;;;;;;3.88;2.83;;;;;;;;;;2615492;54;20046;-69
2021/08/22 00:57:10;;;;;;;3.47;3.03;;;;;;;;;;2616628;54;20057;-70
2021/08/22 00:59:37;;;;;;;4.07;2.72;;;;;;;;;;2616716;54;20010;-69
2021/08/22 01:02:03;;;;;;;3.38;2.58;;;;;;;;;;2616517;54;20675;-69
2021/08/22 01:05:09;;;;;;;3.45;2.60;;;;;;;;;;2616006;54;20029;-69
2021/08/22 01:07:44;;;;;;;4.13;2.65;;;;;;;;;;2615600;54;20029;-69
2021/08/22 01:10:11;;;;;;;3.47;2.42;;;;;;;;;;2616296;54;20018;-69
2021/08/22 01:12:43;;;;;;;3.20;2.60;;;;;;;;;;2616322;54;20027;-69
2021/08/22 01:15:13;;;;;;;5.35;3.42;;;;;;;;;;2616217;54;20018;-68
2021/08/22 01:17:47;;;;;;;3.72;2.45;;;;;;;;;;2616346;54;20029;-68
2021/08/22 01:20:29;;;;;;;4.55;2.80;;;;;;;;;;2615696;54;20034;-70
2021/08/22 01:22:55;;;;;;;2.90;2.30;;;;;;;;;;2615987;54;20134;-71
2021/08/22 01:25:21;;;;;;;4.50;2.80;;;;;;;;;;2616091;54;20010;-69
2021/08/22 01:27:48;;;;;;;4.03;3.13;;;;;;;;;;2616494;54;20777;-68
2021/08/22 01:30:16;;;;;;;6.15;2.78;;;;;;;;;;2617002;31;20464;-70
2021/08/22 01:32:44;;;;;;;3.97;2.28;;;;;;;;;;2615656;54;20045;-71
2021/08/22 01:35:12;;;;;;;5.65;2.90;;;;;;;;;;2616155;47;20022;-70
2021/08/22 01:37:40;;;;;;;3.15;2.55;;;;;;;;;;2616489;54;20010;-70
2021/08/22 01:40:08;;;;;;;3.50;2.58;;;;;;;;;;2615740;39;20396;-70
2021/08/22 01:42:35;;;;;;;3.50;2.72;;;;;;;;;;2616911;54;20023;-70
2021/08/22 01:45:03;;;;;;;3.78;2.55;;;;;;;;;;2616200;54;20011;-70
2021/08/22 01:47:30;;;;;;;3.85;2.40;;;;;;;;;;2616510;54;20061;-72
2021/08/22 01:49:56;;;;;;;3.10;2.53;;;;;;;;;;2615542;47;20022;-70
2021/08/22 01:52:22;;;;;;;3.47;2.30;;;;;;;;;;2615122;54;20528;-70
2021/08/22 01:54:48;;;;;;;3.28;2.17;;;;;;;;;;2616205;54;20033;-71
2021/08/22 01:57:13;;;;;;;3.03;2.20;;;;;;;;;;2616152;54;20018;-72
2021/08/22 01:59:39;;;;;;;3.55;2.80;;;;;;;;;;2616169;54;20150;-72
2021/08/22 02:02:05;;;;;;;3.53;2.47;;;;;;;;;;2615543;47;20117;-72
2021/08/22 02:04:46;;;;;;;3.25;2.42;;;;;;;;;;2615873;54;20638;-71
2021/08/22 02:07:17;;;;;;;3.13;2.35;;;;;;;;;;2615325;54;20023;-72
2021/08/22 02:10:04;;;;;;;3.47;2.35;;;;;;;;;;2616303;54;20053;-72
2021/08/22 02:12:30;;;;;;;2.53;2.00;;;;;;;;;;2616392;54;20041;-72
2021/08/22 02:15:18;;;;;;;2.95;2.25;;;;;;;;;;2616497;54;20018;-72
2021/08/22 02:18:00;;;;;;;3.05;2.20;;;;;;;;;;2616145;54;20035;-73
2021/08/22 02:20:26;;;;;;;2.72;2.15;;;;;;;;;;2615447;54;20034;-71
2021/08/22 02:22:54;;;;;;;5.70;2.65;;;;;;;;;;2616138;47;20109;-73
2021/08/22 02:25:20;;;;;;;3.03;2.33;;;;;;;;;;2615665;54;20062;-73
2021/08/22 02:27:46;;;;;;;2.47;2.08;;;;;;;;;;2616154;54;20022;-73
2021/08/22 02:30:12;;;;;;;3.83;2.65;;;;;;;;;;2616006;54;20022;-73
2021/08/22 02:32:37;;;;;;;2.67;2.08;;;;;;;;;;2616104;54;20493;-73
2021/08/22 02:35:03;;;;;;;4.03;2.40;;;;;;;;;;2615837;54;20033;-74
2021/08/22 02:37:29;;;;;;;3.38;2.47;;;;;;;;;;2616219;54;20781;-74
2021/08/22 02:39:55;;;;;;;2.60;2.05;;;;;;;;;;2616512;39;20408;-74
2021/08/22 02:42:21;;;;;;;4.60;2.47;;;;;;;;;;2616226;39;20202;-75
2021/08/22 02:44:46;;;;;;;3.92;2.58;;;;;;;;;;2616187;54;20134;-74
2021/08/22 02:47:14;;;;;;;2.95;2.17;;;;;;;;;;2615215;47;20022;-74
2021/08/22 02:49:40;;;;;;;2.83;1.83;;;;;;;;;;2615758;31;20476;-72
2021/08/22 02:52:06;;;;;;;2.63;2.00;;;;;;;;;;2615886;54;20019;-72
2021/08/22 02:54:32;;;;;;;3.45;2.45;;;;;;;;;;2616027;51;20022;-72
2021/08/22 02:56:57;;;;;;;3.63;2.22;;;;;;;;;;2615425;54;20027;-73
2021/08/22 02:59:22;;;;;;;3.08;2.15;;;;;;;;;;2612849;54;20038;-72
2021/08/22 03:01:48;;;;;;;3.60;2.50;;;;;;;;;;2615812;54;20517;-72
2021/08/22 03:04:13;;;;;;;3.90;2.47;;;;;;;;;;2615140;54;20018;-73
2021/08/22 03:06:39;;;;;;;5.70;3.60;;;;;;;;;;2615620;54;20114;-73
2021/08/22 03:09:04;;;;;;;4.03;3.13;;;;;;;;;;2616134;54;20527;-73
2021/08/22 03:11:30;;;;;;;3.88;2.17;;;;;;;;;;2616042;54;20007;-73
2021/08/22 03:13:56;;;;;;;2.88;2.50;;;;;;;;;;2616027;54;20014;-74
2021/08/22 03:16:22;;;;;;;4.10;2.97;;;;;;;;;;2615429;54;20109;-73
2021/08/22 03:18:48;;;;;;;3.20;2.55;;;;;;;;;;2615296;54;20041;-74
2021/08/22 03:21:13;;;;;;;3.30;2.33;;;;;;;;;;2615265;54;20014;-74
2021/08/22 03:23:39;;;;;;;4.20;3.42;;;;;;;;;;2616038;47;20033;-74
2021/08/22 03:26:04;;;;;;;3.05;2.45;;;;;;;;;;2615803;39;20372;-74
2021/08/22 03:28:30;;;;;;;3.10;1.92;;;;;;;;;;2616189;54;20485;-74
2021/08/22 03:30:55;;;;;;;3.30;2.45;;;;;;;;;;2615989;54;20026;-74
2021/08/22 03:33:21;;;;;;;3.00;2.30;;;;;;;;;;2615124;47;20061;-73
2021/08/22 03:35:47;;;;;;;4.88;2.25;;;;;;;;;;2615170;54;20011;-74
2021/08/22 03:38:13;;;;;;;3.63;2.10;;;;;;;;;;2615319;54;20018;-74
2021/08/22 03:40:39;;;;;;;2.83;2.22;;;;;;;;;;2614884;53;20032;-75
2021/08/22 03:43:04;;;;;;;3.05;2.33;;;;;;;;;;2615187;47;20041;-75
2021/08/22 03:45:30;;;;;;;4.70;2.25;;;;;;;;;;2615787;54;20932;-75
2021/08/22 03:47:56;;;;;;;2.42;1.88;;;;;;;;;;2615457;39;20357;-74
2021/08/22 03:50:21;;;;;;;3.70;2.40;;;;;;;;;;2615587;54;20074;-75
2021/08/22 03:52:48;;;;;;;3.05;2.05;;;;;;;;;;2615880;54;20026;-75
2021/08/22 03:55:14;;;;;;;4.90;2.70;;;;;;;;;;2615572;54;20066;-74
2021/08/22 03:57:40;;;;;;;2.55;1.90;;;;;;;;;;2615702;54;20061;-75
2021/08/22 04:00:06;;;;;;;3.05;2.28;;;;;;;;;;2615986;47;20018;-75
2021/08/22 04:02:32;;;;;;;3.20;2.13;;;;;;;;;;2615299;54;20033;-75
2021/08/22 04:04:59;;;;;;;2.83;2.13;;;;;;;;;;2615749;54;20026;-74
2021/08/22 04:07:25;;;;;;;4.38;2.60;;;;;;;;;;2615648;54;20031;-74
2021/08/22 04:09:50;;;;;;;4.05;2.58;;;;;;;;;;2615660;39;20708;-75
2021/08/22 04:12:15;;;;;;;3.60;2.30;;;;;;;;;;2615614;54;20025;-74
2021/08/22 04:14:41;;;;;;;2.88;2.10;;;;;;;;;;2615547;54;20695;-75
2021/08/22 04:17:06;;;;;;;2.72;2.35;;;;;;;;;;2615574;54;20026;-74
2021/08/22 04:19:32;;;;;;;3.03;2.08;;;;;;;;;;2615350;54;20026;-74
2021/08/22 04:21:58;;;;;;;3.35;2.17;;;;;;;;;;2615830;47;20029;-73
2021/08/22 04:24:23;;;;;;;3.92;2.30;;;;;;;;;;2615420;54;20116;-73
2021/08/22 04:26:49;;;;;;;3.00;2.08;;;;;;;;;;2615661;47;20010;-76
2021/08/22 04:29:15;;;;;;;3.53;2.13;;;;;;;;;;2616512;54;20022;-75
2021/08/22 04:31:40;;;;;;;2.60;2.00;;;;;;;;;;2617011;54;20019;-74
2021/08/22 04:34:06;;;;;;;4.05;2.15;;;;;;;;;;2617168;54;20043;-76
2021/08/22 04:36:31;;;;;;;4.13;2.17;;;;;;;;;;2616973;47;20061;-74
2021/08/22 04:38:57;;;;;;;3.22;2.60;;;;;;;;;;2617433;54;20495;-75
2021/08/22 04:41:22;;;;;;;3.45;2.53;;;;;;;;;;2616871;47;20022;-75
2021/08/22 04:43:51;;;;;;;2.72;2.28;;;;;;;;;;2617372;54;20026;-74
2021/08/22 04:46:17;;;;;;;2.90;2.25;;;;;;;;;;2616443;54;20030;-75
2021/08/22 04:48:42;;;;;;;2.80;2.13;;;;;;;;;;2616491;54;20019;-75
2021/08/22 04:51:08;;;;;;;3.78;2.08;;;;;;;;;;2616698;54;20508;-74
2021/08/22 04:53:33;;;;;;;3.78;2.67;;;;;;;;;;2617079;54;20126;-74
2021/08/22 04:55:59;;;;;;;3.33;2.58;;;;;;;;;;2616070;47;20010;-73
2021/08/22 04:58:25;;;;;;;2.95;2.17;;;;;;;;;;2615201;47;20067;-75
2021/08/22 05:00:50;;;;;;;2.58;2.10;;;;;;;;;;2616542;54;20022;-74
2021/08/22 05:03:15;;;;;;;5.32;2.65;;;;;;;;;;2616338;54;20117;-74
2021/08/22 05:05:41;;;;;;;2.22;1.75;;;;;;;;;;2616793;54;20065;-73
2021/08/22 05:08:06;;;;;;;2.65;1.92;;;;;;;;;;2616610;54;20026;-74
2021/08/22 05:10:32;;;;;;;4.50;2.67;;;;;;;;;;2615990;54;20017;-74
2021/08/22 05:12:57;;;;;;;3.35;2.42;;;;;;;;;;2616682;54;20021;-74
2021/08/22 05:15:22;;;;;;;3.65;2.47;;;;;;;;;;2616660;54;20023;-74
2021/08/22 05:17:48;;;;;;;3.33;2.30;;;;;;;;;;2616409;54;20022;-74
2021/08/22 05:20:14;;;;;;;3.83;2.75;;;;;;;;;;2616598;54;20011;-75
2021/08/22 05:22:39;;;;;;;3.70;2.78;;;;;;;;;;2616292;54;20010;-74
2021/08/22 05:25:05;;;;;;;4.10;2.28;;;;;;;;;;2616424;54;20015;-74
2021/08/22 05:27:30;;;;;;;5.55;2.45;;;;;;;;;;2616287;54;20018;-74
2021/08/22 05:29:56;;;;;;;5.70;2.67;;;;;;;;;;2616399;54;20041;-74
2021/08/22 05:32:21;;;;;;;3.88;2.38;;;;;;;;;;2616150;54;20656;-73
2021/08/22 05:34:47;;;;;;;3.30;2.63;;;;;;;;;;2616506;54;20046;-72
2021/08/22 05:37:12;;;;;;;2.85;2.33;;;;;;;;;;2615339;54;20026;-72
2021/08/22 05:39:37;;;;;;;4.60;3.28;;;;;;;;;;2616243;54;20011;-73
2021/08/22 05:42:04;;;;;;;3.70;2.47;;;;;;;;;;2616345;54;20009;-74
2021/08/22 05:44:30;;;;;;;3.60;2.58;;;;;;;;;;2616349;54;20015;-73
2021/08/22 05:46:55;;;;;;;3.83;2.50;;;;;;;;;;2616732;39;20397;-72
2021/08/22 05:49:21;;;;;;;3.10;2.80;;;;;;;;;;2616190;54;20029;-73
2021/08/22 05:51:47;;;;;;;7.10;3.50;;;;;;;;;;2616650;54;20011;-73
2021/08/22 05:54:12;;;;;;;3.30;2.58;;;;;;;;;;2616537;39;20401;-72
2021/08/22 05:56:38;;;;;;;3.20;2.50;;;;;;;;;;2616205;47;20113;-72
2021/08/22 05:59:03;;;;;;;2.75;2.08;;;;;;;;;;2616557;54;20085;-73
2021/08/22 06:01:29;;;;;;;3.40;2.78;;;;;;;;;;2615981;54;20062;-73
2021/08/22 06:03:54;;;;;;;3.25;2.13;;;;;;;;;;2616296;54;20507;-73
2021/08/22 06:06:20;;;;;;;3.35;2.63;;;;;;;;;;2615909;54;20037;-73
2021/08/22 06:08:45;;;;;;;3.35;2.50;;;;;;;;;;2616345;54;20014;-73
2021/08/22 06:11:11;;;;;;;4.57;2.47;;;;;;;;;;2615777;54;20026;-74
2021/08/22 06:13:36;;;;;;;2.50;1.98;;;;;;;;;;2616240;54;20014;-72
2021/08/22 06:16:02;;;;;;;3.42;2.55;;;;;;;;;;2616292;54;20014;-72
2021/08/22 06:18:28;;;;;;;2.97;2.38;;;;;;;;;;2615096;54;20015;-72
2021/08/22 06:20:53;;;;;;;3.63;3.10;;;;;;;;;;2615973;54;20014;-73
2021/08/22 06:23:18;;;;;;;3.10;2.22;;;;;;;;;;2616342;39;20342;-73
2021/08/22 06:25:44;;;;;;;3.88;2.97;;;;;;;;;;2616097;54;20018;-73
2021/08/22 06:28:09;;;;;;;3.78;2.65;;;;;;;;;;2615243;54;20026;-73
2021/08/22 06:30:35;;;;;;;3.42;2.70;;;;;;;;;;2615631;54;20069;-73
2021/08/22 06:33:00;;;;;;;3.58;2.58;;;;;;;;;;2616119;54;20014;-73
2021/08/22 06:35:26;;;;;;;3.88;2.92;;;;;;;;;;2616149;54;20015;-73
2021/08/22 06:37:51;;;;;;;3.97;2.95;;;;;;;;;;2615965;51;20029;-73
2021/08/22 06:40:18;;;;;;;5.30;3.40;;;;;;;;;;2615808;47;20014;-72
2021/08/22 06:42:43;;;;;;;3.70;2.95;;;;;;;;;;2616081;54;20010;-73
2021/08/22 06:45:09;;;;;;;4.78;3.25;;;;;;;;;;2616679;39;20120;-72
2021/08/22 06:47:35;;;;;;;3.92;3.00;;;;;;;;;;2615647;54;20026;-71
2021/08/22 06:50:00;;;;;;;4.00;3.30;;;;;;;;;;2615977;54;20018;-73
2021/08/22 06:52:26;;;;;;;3.85;2.75;;;;;;;;;;2615491;54;20057;-71
2021/08/22 06:54:51;;;;;;;4.20;2.65;;;;;;;;;;2616049;54;20014;-73
2021/08/22 06:57:17;;;;;;;6.90;3.50;;;;;;;;;;2616125;54;20025;-71
2021/08/22 06:59:42;;;;;;;11.23;3.10;;;;;;;;;;2615479;54;20014;-73
2021/08/22 07:02:10;;;;;;;3.63;2.50;;;;;;;;;;2615597;54;20026;-73
2021/08/22 07:04:36;;;;;;;4.25;2.70;;;;;;;;;;2616299;54;20867;-72
2021/08/22 07:07:01;;;;;;;4.13;2.72;;;;;;;;;;2615949;54;20025;-72
2021/08/22 07:09:27;;;;;;;6.03;3.20;;;;;;;;;;2616044;54;20098;-72
2021/08/22 07:11:52;;;;;;;4.07;2.50;;;;;;;;;;2616135;54;20041;-74
2021/08/22 07:14:18;;;;;;;3.60;2.78;;;;;;;;;;2615549;54;20022;-72
2021/08/22 07:16:43;;;;;;;3.38;2.72;;;;;;;;;;2615694;54;20480;-74
2021/08/22 07:19:09;;;;;;;6.00;3.33;;;;;;;;;;2615932;54;20014;-74
2021/08/22 07:21:34;;;;;;;3.20;2.60;;;;;;;;;;2615476;54;20075;-75
2021/08/22 07:24:01;;;;;;;3.22;2.20;;;;;;;;;;2615913;50;20011;-73
2021/08/22 07:26:26;;;;;;;2.83;2.13;;;;;;;;;;2615884;54;20021;-73
2021/08/22 07:28:51;;;;;;;4.70;2.42;;;;;;;;;;2616035;54;20026;-74
2021/08/22 07:31:17;;;;;;;3.33;2.70;;;;;;;;;;2616123;39;20461;-74
2021/08/22 07:33:44;;;;;;;4.70;2.45;;;;;;;;;;2615958;54;20038;-74
2021/08/22 07:36:10;;;;;;;2.78;2.25;;;;;;;;;;2616207;39;20368;-73
2021/08/22 07:38:36;;;;;;;2.67;2.08;;;;;;;;;;2615814;54;20023;-73
2021/08/22 07:41:01;;;;;;;3.28;2.33;;;;;;;;;;2616051;54;20097;-74
2021/08/22 07:43:26;;;;;;;3.05;2.03;;;;;;;;;;2615575;54;20103;-73
2021/08/22 07:45:52;;;;;;;2.28;1.77;;;;;;;;;;2615780;54;20022;-72
2021/08/22 07:48:17;;;;;;;4.93;2.63;;;;;;;;;;2615177;54;20114;-73
2021/08/22 07:50:43;;;;;;;4.90;2.83;;;;;;;;;;2615311;54;20010;-74
2021/08/22 07:53:08;;;;;;;3.83;2.17;;;;;;;;;;2615491;47;20527;-74
2021/08/22 07:55:35;;;;;;;4.28;2.67;;;;;;;;;;2615496;54;20034;-74
2021/08/22 07:58:00;;;;;;;4.13;2.83;;;;;;;;;;2615820;54;20018;-75
2021/08/22 08:00:26;;;;;;;3.58;2.40;;;;;;;;;;2615030;54;20106;-75
2021/08/22 08:02:51;;;;;;;3.63;2.47;;;;;;;;;;2616398;54;20038;-75
2021/08/22 08:05:17;;;;;;;3.55;2.65;;;;;;;;;;2616637;54;20109;-75
2021/08/22 08:07:42;;;;;;;4.22;2.72;;;;;;;;;;2616294;54;20023;-75
2021/08/22 08:10:09;;;;;;;3.63;2.55;;;;;;;;;;2616766;54;20027;-75
2021/08/22 08:12:35;;;;;;;3.72;2.70;;;;;;;;;;2616417;54;20002;-74
2021/08/22 08:15:02;;;;;;;4.90;2.25;;;;;;;;;;2616599;54;20029;-74
2021/08/22 08:17:27;;;;;;;2.78;1.83;;;;;;;;;;2615484;54;20014;-75
2021/08/22 08:19:53;;;;;;;3.75;2.40;;;;;;;;;;2616784;54;20022;-74
2021/08/22 08:22:18;;;;;;;3.45;2.13;;;;;;;;;;2615958;54;20010;-75
2021/08/22 08:24:44;;;;;;;2.83;2.25;;;;;;;;;;2616540;54;20014;-75
2021/08/22 08:27:09;;;;;;;3.50;2.33;;;;;;;;;;2616025;54;20026;-75
2021/08/22 08:29:35;;;;;;;2.40;1.83;;;;;;;;;;2616408;54;20150;-75
2021/08/22 08:32:01;;;;;;;4.18;2.85;;;;;;;;;;2616451;54;20018;-75
2021/08/22 08:34:26;;;;;;;3.78;2.80;;;;;;;;;;2616682;54;20015;-75
2021/08/22 08:36:51;;;;;;;3.60;2.65;;;;;;;;;;2616530;54;20457;-75
2021/08/22 08:39:17;;;;;;;3.15;2.17;;;;;;;;;;2616535;51;20021;-74
2021/08/22 08:41:42;;;;;;;2.78;2.20;;;;;;;;;;2616312;54;20017;-74
2021/08/22 08:44:12;;;;;;;2.50;1.83;;;;;;;;;;2616449;54;20069;-74
2021/08/22 08:46:42;;;;;;;3.58;2.53;;;;;;;;;;2615824;54;20031;-74
2021/08/22 08:49:30;;;;;;;2.92;2.03;;;;;;;;;;2615672;54;20107;-75
2021/08/22 08:52:11;;;;;;;3.22;2.08;;;;;;;;;;2617163;39;20464;-75
2021/08/22 08:55:24;;;;;;;4.47;2.75;;;;;;;;;;2616257;54;20122;-75
2021/08/22 08:57:49;;;;;;;4.47;2.88;;;;;;;;;;2615781;54;20516;-75
2021/08/22 09:00:19;;;;;;;2.67;1.92;;;;;;;;;;2616235;54;20015;-74
2021/08/22 09:02:45;;;;;;;3.08;2.28;;;;;;;;;;2616007;54;20009;-75
2021/08/22 09:05:28;;;;;;;2.28;1.67;;;;;;;;;;2616017;47;20604;-74
2021/08/22 09:08:16;;;;;;;2.90;1.98;;;;;;;;;;2615651;54;20019;-75
2021/08/22 09:11:21;;;;;;;2.42;1.52;;;;;;;;;;2616204;54;20107;-74
2021/08/22 09:14:25;;;;;;;3.33;1.90;;;;;;;;;;2615569;31;20450;-75
2021/08/22 09:17:15;;;;;;;2.88;1.95;;;;;;;;;;2616221;54;20021;-74
2021/08/22 09:20:17;;;;;;;3.45;1.90;;;;;;;;;;2615823;54;20010;-73
2021/08/22 09:23:34;;;;;;;1.92;1.58;;;;;;;;;;2616495;31;20456;-74
2021/08/22 09:26:17;;;;;;;4.07;2.75;;;;;;;;;;2615636;54;20018;-73
2021/08/22 09:29:20;;;;;;;3.45;2.53;;;;;;;;;;2616132;54;20023;-73
2021/08/22 09:32:23;;;;;;;2.45;1.88;;;;;;;;;;2615922;54;20049;-73
2021/08/22 09:35:14;;;;;;;4.82;2.65;;;;;;;;;;2615687;47;20014;-73
2021/08/22 09:38:17;;;;;;;2.78;1.98;;;;;;;;;;2615974;54;20022;-73
2021/08/22 09:41:13;;;;;;;2.70;2.03;;;;;;;;;;2615796;54;20114;-73
2021/08/22 09:43:38;;;;;;;2.40;1.88;;;;;;;;;;2615100;54;20134;-67
2021/08/22 09:46:07;;;;;;;4.22;2.30;;;;;;;;;;2616088;54;20014;-66
2021/08/22 09:49:00;;;;;;;3.33;1.77;;;;;;;;;;2616061;39;20345;-67
2021/08/22 09:51:47;;;;;;;2.92;1.90;;;;;;;;;;2615988;54;20053;-67
2021/08/22 09:54:32;;;;;;;2.58;1.45;;;;;;;;;;2615856;54;20018;-66
